KCKV/CKV METAR and TAF weather

Enter ICAO airport designator
Station Type Date Time Source
KCKV METAR 2021/09/23 23:52 UTC NOAA

KCKV 232352Z AUTO 26003KT 10SM CLR 18/08 A3005 RMK AO2 SLP174 T01830078 10217 20183 51004


Station Type Date Time Source
KCKV Decoded METAR 2021/09/23 23:52 UTC NOAA

CLARKSVILLE OUTLAW FIELD, TN, United States (KCKV) 36-37N 87-25W 165M
Sep 23, 2021 - 07:52 PM EDT / 2021.09.23 2352 UTC
Wind: from the W (260 degrees) at 3 MPH (3 KT):0
Visibility: 10 mile(s):0
Sky conditions: clear
Temperature: 64.9 F (18.3 C)
Dew Point: 46.0 F (7.8 C)
Relative Humidity: 50%
Pressure (altimeter): 30.05 in. Hg (1017 hPa)
Pressure tendency: 0.01 inches (0.4 hPa) higher than three hours ago
ob: KCKV 232352Z AUTO 26003KT 10SM CLR 18/08 A3005 RMK AO2 SLP174 T01830078 10217 20183 51004
cycle: 0

Station Type Date Time Source
KCKV TAF 2021/09/23 18:36 UTC NOAA

TAF KCKV 231733Z 2318/2418 31012G20KT P6SM SKC
FM240000 VRB03KT P6SM SKC
FM240600 00000KT 4SM BR BCFG SKC
FM241300 22002KT P6SM SKC

Example: see airport list